createdAt,value
2023-03-06T00:00:30.294Z,236.26
2023-03-06T00:01:30.398Z,235.33
2023-03-06T00:02:30.488Z,236.64
2023-03-06T00:03:30.612Z,236.26
2023-03-06T00:04:30.666Z,236.33
2023-03-06T00:05:30.764Z,235.51
2023-03-06T00:06:30.854Z,235.18
2023-03-06T00:07:30.896Z,239.34
2023-03-06T00:08:31.014Z,235.44
2023-03-06T00:09:31.093Z,237.24
2023-03-06T00:10:31.190Z,237.65
2023-03-06T00:11:31.223Z,237.59
2023-03-06T00:12:31.294Z,238.60
2023-03-06T00:13:31.422Z,241.20
2023-03-06T00:14:31.504Z,238.30
2023-03-06T00:15:31.592Z,236.37
2023-03-06T00:16:31.697Z,238.36
2023-03-06T00:17:31.750Z,238.04
2023-03-06T00:18:31.820Z,235.07
2023-03-06T00:19:31.920Z,235.43
2023-03-06T00:20:32.012Z,237.21
2023-03-06T00:21:32.091Z,237.30
2023-03-06T00:22:32.175Z,238.18
2023-03-06T00:23:32.251Z,237.76
2023-03-06T00:24:32.354Z,242.88
2023-03-06T00:25:32.427Z,242.82
2023-03-06T00:26:32.538Z,241.98
2023-03-06T00:27:32.610Z,240.15
2023-03-06T00:28:32.695Z,243.05
2023-03-06T00:29:32.763Z,242.39
2023-03-06T00:30:32.859Z,243.87
2023-03-06T00:31:32.973Z,242.03
2023-03-06T00:32:33.174Z,243.93
2023-03-06T00:33:33.062Z,243.95
2023-03-06T01:31:37.885Z,241.40
2023-03-06T01:32:38.017Z,240.16
2023-03-06T01:33:38.091Z,240.99
2023-03-06T01:34:38.436Z,242.26
2023-03-06T01:35:38.268Z,239.28
2023-03-06T01:36:38.345Z,240.44
2023-03-06T01:37:38.412Z,239.04
2023-03-06T01:38:38.500Z,237.31
2023-03-06T01:39:38.617Z,235.35
2023-03-06T01:40:38.677Z,234.26
2023-03-06T01:41:38.746Z,235.11
2023-03-06T01:42:38.835Z,236.14
2023-03-06T01:43:38.929Z,233.53
2023-03-06T01:44:38.941Z,230.99
2023-03-06T01:45:39.086Z,232.71
2023-03-06T01:46:39.092Z,234.19
2023-03-06T01:47:39.176Z,230.24
2023-03-06T01:48:39.203Z,231.11
2023-03-06T01:49:39.321Z,227.64
2023-03-06T01:50:39.390Z,228.23
2023-03-06T01:51:39.450Z,229.11
2023-03-06T01:52:39.524Z,227.16
2023-03-06T01:53:39.606Z,226.94
2023-03-06T01:54:39.712Z,227.19
2023-03-06T01:55:39.753Z,225.91
2023-03-06T01:56:39.861Z,225.35
2023-03-06T01:57:39.906Z,226.81
2023-03-06T01:58:39.967Z,229.00
2023-03-06T01:59:40.050Z,228.01
2023-03-06T02:00:40.153Z,226.83
2023-03-06T02:01:40.237Z,222.45
2023-03-06T02:02:40.329Z,223.70
2023-03-06T02:03:40.349Z,223.71
2023-03-06T02:04:40.491Z,223.03
2023-03-06T02:05:40.524Z,222.35
2023-03-06T02:06:40.617Z,225.28
2023-03-06T02:07:40.719Z,223.80
2023-03-06T02:08:40.786Z,224.78
2023-03-06T02:09:40.884Z,227.27
2023-03-06T02:10:41.007Z,226.91
2023-03-06T02:11:41.084Z,227.97
2023-03-06T02:12:41.124Z,225.81
2023-03-06T02:13:41.241Z,229.88
2023-03-06T02:14:41.351Z,229.26
2023-03-06T02:15:41.372Z,227.42
2023-03-06T02:16:41.497Z,229.70
2023-03-06T02:17:41.535Z,232.06
2023-03-06T02:18:41.634Z,235.47
2023-03-06T02:19:41.730Z,232.54
2023-03-06T02:20:41.834Z,237.98
2023-03-06T02:21:41.943Z,237.61
2023-03-06T02:22:42.034Z,250.00
2023-03-06T02:23:42.085Z,249.56
2023-03-06T02:24:42.201Z,243.17
2023-03-06T02:25:42.253Z,244.95
2023-03-06T02:26:42.373Z,242.78
2023-03-06T03:36:47.853Z,212.97
2023-03-06T03:37:47.936Z,212.01
2023-03-06T03:38:48.010Z,208.54
2023-03-06T03:39:48.099Z,207.62
2023-03-06T03:40:48.177Z,205.26
2023-03-06T03:41:48.268Z,204.18
2023-03-06T03:42:48.343Z,206.32
2023-03-06T03:43:48.458Z,209.54
2023-03-06T03:44:48.536Z,212.89
2023-03-06T03:45:48.620Z,213.96
2023-03-06T03:46:48.698Z,210.61
2023-03-06T03:47:48.747Z,212.54
2023-03-06T03:48:48.838Z,214.25
2023-03-06T03:49:48.902Z,212.44
2023-03-06T03:50:48.985Z,214.27
2023-03-06T03:51:49.043Z,212.47
2023-03-06T03:52:49.135Z,212.62
2023-03-06T03:53:49.208Z,215.09
2023-03-06T03:54:50.136Z,217.51
2023-03-06T03:55:49.390Z,220.99
2023-03-06T03:56:49.456Z,222.91
2023-03-06T03:57:49.548Z,220.23
2023-03-06T03:58:49.598Z,216.27
2023-03-06T03:59:49.692Z,220.04
2023-03-06T04:00:49.776Z,214.64
2023-03-06T04:01:49.861Z,209.95
2023-03-06T04:02:49.901Z,210.63
2023-03-06T04:03:49.967Z,205.22
2023-03-06T04:04:50.068Z,205.36
2023-03-06T04:05:50.101Z,207.99
2023-03-06T04:06:50.187Z,205.88
2023-03-06T04:07:50.296Z,204.52
2023-03-06T04:08:50.328Z,203.34
2023-03-06T04:09:50.419Z,200.88
2023-03-06T04:10:50.586Z,200.62
2023-03-06T04:11:50.587Z,197.65
2023-03-06T04:12:50.631Z,196.69
2023-03-06T04:13:50.709Z,193.94
2023-03-06T04:14:50.784Z,195.82
2023-03-06T04:15:50.928Z,195.02
2023-03-06T04:16:50.889Z,192.95
2023-03-06T04:17:51.001Z,192.31
2023-03-06T04:18:51.096Z,193.34
2023-03-06T04:19:51.132Z,194.13
2023-03-06T04:20:51.198Z,191.21
2023-03-06T04:21:51.279Z,197.57
2023-03-06T04:22:51.380Z,202.42
2023-03-06T04:23:51.465Z,205.55
2023-03-06T04:24:51.540Z,206.15
2023-03-06T04:25:51.636Z,211.37
2023-03-06T04:26:51.685Z,211.90
2023-03-06T04:27:51.845Z,212.03
2023-03-06T04:28:51.868Z,209.47
2023-03-06T04:29:51.918Z,208.49
2023-03-06T04:30:51.977Z,213.37
2023-03-06T04:31:52.101Z,209.17
2023-03-06T04:32:52.210Z,210.25
2023-03-06T04:33:52.240Z,212.56
2023-03-06T04:34:52.338Z,206.71
2023-03-06T04:35:52.481Z,207.97
2023-03-06T04:36:52.483Z,209.55
2023-03-06T04:37:52.573Z,213.04
2023-03-06T04:38:52.673Z,216.08
2023-03-06T04:39:52.713Z,215.03
2023-03-06T04:40:52.805Z,210.61
2023-03-06T04:41:52.854Z,210.59
2023-03-06T04:42:52.940Z,206.78
2023-03-06T04:43:53.037Z,206.32
2023-03-06T04:44:53.099Z,209.37
2023-03-06T04:45:53.278Z,203.51
2023-03-06T04:46:53.260Z,201.02
2023-03-06T04:47:53.388Z,199.79
2023-03-06T04:48:53.447Z,198.87
2023-03-06T04:49:53.541Z,204.09
2023-03-06T04:50:53.631Z,204.90
2023-03-06T04:51:53.713Z,206.73
2023-03-06T04:52:53.767Z,207.81
2023-03-06T04:53:53.869Z,210.10
2023-03-06T04:54:53.917Z,210.99
2023-03-06T04:55:53.987Z,209.87
2023-03-06T04:56:54.093Z,209.38
2023-03-06T04:57:54.153Z,205.88
2023-03-06T04:58:54.235Z,205.84
2023-03-06T04:59:54.343Z,200.58
2023-03-06T05:00:54.511Z,203.22
2023-03-06T05:01:54.500Z,205.37
2023-03-06T05:02:54.548Z,208.22
2023-03-06T05:03:54.650Z,210.32
2023-03-06T05:04:54.707Z,208.72
2023-03-06T05:05:54.799Z,213.63
2023-03-06T05:06:54.857Z,210.98
2023-03-06T05:07:54.925Z,211.75
2023-03-06T05:08:55.005Z,214.16
2023-03-06T05:09:55.080Z,215.50
2023-03-06T05:10:55.147Z,216.80
2023-03-06T05:11:55.243Z,213.80
2023-03-06T05:12:55.293Z,217.10
2023-03-06T05:13:55.388Z,221.31
2023-03-06T05:14:55.471Z,220.66
2023-03-06T05:15:55.526Z,220.94
2023-03-06T05:16:55.620Z,221.20
2023-03-06T05:17:55.642Z,224.92
2023-03-06T05:18:55.748Z,222.31
2023-03-06T05:20:55.888Z,213.77
2023-03-06T05:21:55.944Z,211.65
2023-03-06T05:22:56.072Z,201.23
2023-03-06T05:23:56.134Z,201.06
2023-03-06T05:24:56.186Z,201.29
2023-03-06T05:25:56.281Z,205.13
2023-03-06T05:26:56.357Z,201.59
2023-03-06T05:52:57.863Z,231.10
2023-03-06T05:53:57.975Z,232.08
2023-03-06T05:54:58.036Z,234.89
2023-03-06T05:55:58.102Z,235.93
2023-03-06T05:56:58.165Z,236.01
2023-03-06T05:57:58.282Z,238.01
2023-03-06T05:58:58.361Z,241.03
2023-03-06T05:59:58.450Z,241.16
2023-03-06T06:01:05.722Z,245.01
2023-03-06T06:01:58.610Z,245.20
2023-03-06T06:02:58.597Z,245.07
2023-03-06T06:03:58.608Z,244.21
2023-03-06T06:04:58.675Z,247.79
2023-03-06T06:05:58.688Z,246.22
2023-03-06T06:06:58.716Z,247.57
2023-03-06T06:07:58.754Z,248.84
2023-03-06T06:08:58.779Z,248.54
2023-03-06T06:09:58.863Z,248.93
2023-03-06T06:10:58.951Z,248.14
2023-03-06T06:11:58.941Z,248.62
2023-03-06T06:12:58.996Z,247.20
2023-03-06T06:13:59.048Z,248.40
2023-03-06T06:14:58.970Z,249.97
2023-03-06T06:15:59.131Z,248.39
2023-03-06T06:16:59.128Z,247.71
2023-03-06T06:17:59.097Z,247.94
2023-03-06T06:18:59.144Z,247.07
2023-03-06T06:19:59.149Z,246.37
2023-03-06T06:20:59.212Z,245.35
2023-03-06T06:21:59.205Z,248.82
2023-03-06T06:22:59.265Z,247.00
2023-03-06T06:23:59.256Z,246.20
2023-03-06T06:24:59.318Z,248.83
2023-03-06T06:27:00.945Z,244.73
2023-03-06T06:27:59.465Z,249.40
2023-03-06T06:29:00.348Z,246.74
2023-03-06T06:29:59.469Z,246.54
2023-03-06T06:30:59.565Z,247.03
2023-03-06T06:31:59.678Z,249.18
2023-03-06T06:32:59.646Z,248.56
2023-03-06T06:33:59.701Z,253.82
2023-03-06T06:34:59.697Z,250.00
2023-03-06T06:48:00.060Z,238.64
2023-03-06T06:49:00.148Z,238.59
2023-03-06T06:50:00.130Z,239.05
2023-03-06T06:51:00.149Z,239.06
2023-03-06T06:52:00.274Z,242.47
2023-03-06T06:53:00.171Z,241.66
2023-03-06T06:54:00.187Z,245.00
2023-03-06T06:55:00.197Z,246.40
2023-03-06T06:56:00.234Z,247.55
2023-03-06T06:57:00.245Z,249.69
2023-03-06T06:58:00.251Z,248.78
2023-03-06T06:59:15.348Z,246.81
2023-03-06T07:00:01.295Z,245.88
2023-03-06T07:01:00.330Z,242.45
2023-03-06T07:02:00.310Z,244.22
2023-03-06T07:03:00.319Z,246.27
2023-03-06T07:04:00.397Z,246.54
2023-03-06T07:05:04.779Z,242.77
2023-03-06T07:06:01.405Z,242.78
2023-03-06T07:07:00.410Z,242.87
2023-03-06T07:08:00.381Z,242.79
2023-03-06T07:09:00.437Z,244.66
2023-03-06T07:10:00.457Z,245.14
2023-03-06T07:11:00.440Z,248.52
2023-03-06T07:12:00.524Z,250.00
2023-03-06T07:13:00.476Z,250.00
2023-03-06T07:14:00.519Z,250.00
2023-03-06T07:15:00.532Z,250.00
2023-03-06T07:16:00.529Z,249.49
2023-03-06T07:17:00.730Z,250.00
2023-03-06T07:18:00.522Z,250.00
2023-03-06T07:19:00.524Z,249.69
2023-03-06T07:20:00.552Z,250.00
2023-03-06T07:21:01.492Z,250.00
2023-03-06T07:22:00.587Z,248.11
2023-03-06T07:23:00.547Z,249.36
2023-03-06T07:24:00.603Z,249.55
2023-03-06T07:25:00.653Z,249.85
2023-03-06T07:26:00.677Z,250.00
2023-03-06T07:27:01.285Z,250.12
2023-03-06T07:28:00.857Z,249.30
2023-03-06T07:29:00.890Z,250.00
2023-03-06T07:30:00.904Z,249.74
2023-03-06T07:31:01.014Z,250.00
2023-03-06T07:32:01.379Z,249.92
2023-03-06T07:33:01.075Z,249.98
2023-03-06T07:34:03.162Z,249.79
2023-03-06T07:35:19.123Z,247.84
2023-03-06T07:37:01.294Z,248.54
2023-03-06T07:38:01.133Z,249.87
2023-03-06T07:39:01.142Z,251.01
2023-03-06T07:40:01.155Z,253.44
2023-03-06T07:41:01.128Z,249.10
2023-03-06T07:42:01.328Z,248.64
2023-03-06T07:43:16.803Z,242.29
2023-03-06T07:45:01.127Z,242.61
2023-03-06T07:46:01.208Z,242.32
2023-03-06T07:48:01.144Z,231.81
2023-03-06T07:49:01.228Z,232.86
2023-03-06T07:50:01.268Z,233.26
2023-03-06T07:51:01.211Z,233.50
2023-03-06T07:52:01.249Z,232.11
2023-03-06T07:53:01.238Z,231.16
2023-03-06T07:54:01.290Z,230.46
2023-03-06T07:55:01.341Z,229.19
2023-03-06T07:56:01.408Z,228.04
2023-03-06T07:57:01.783Z,228.21
2023-03-06T07:58:01.478Z,228.55
2023-03-06T07:59:01.535Z,228.24
2023-03-06T08:00:01.659Z,227.67
2023-03-06T08:01:01.644Z,225.30
2023-03-06T08:02:01.758Z,228.05
2023-03-06T08:03:01.859Z,225.75
2023-03-06T08:04:01.907Z,226.68
2023-03-06T08:05:01.864Z,226.00
2023-03-06T08:06:01.949Z,224.36
2023-03-06T08:08:02.007Z,227.62
2023-03-06T08:09:02.089Z,229.08
2023-03-06T08:10:02.211Z,229.06
2023-03-06T08:11:02.190Z,229.94
2023-03-06T08:12:02.272Z,227.41
2023-03-06T08:13:02.280Z,227.77
2023-03-06T08:14:02.350Z,229.03
2023-03-06T08:15:02.419Z,228.35
2023-03-06T08:16:02.558Z,226.89
2023-03-06T08:17:02.855Z,227.12
2023-03-06T08:19:02.646Z,224.05
2023-03-06T08:20:02.669Z,225.20
2023-03-06T08:21:02.701Z,225.60
2023-03-06T08:23:03.258Z,226.50
2023-03-06T08:24:02.838Z,226.30
2023-03-06T08:25:02.885Z,225.72
2023-03-06T08:26:02.922Z,225.41
2023-03-06T08:27:03.006Z,223.34
2023-03-06T08:28:03.279Z,225.09
2023-03-06T08:29:03.145Z,226.18
2023-03-06T08:30:03.180Z,226.16
2023-03-06T08:31:03.238Z,224.09
2023-03-06T08:33:03.755Z,225.12
2023-03-06T08:34:03.414Z,223.40
2023-03-06T08:35:03.474Z,222.04
2023-03-06T08:36:03.560Z,219.28
2023-03-06T08:37:03.580Z,222.51
2023-03-06T08:38:03.803Z,220.47
2023-03-06T08:39:03.721Z,222.90
2023-03-06T08:40:03.773Z,225.44
2023-03-06T08:41:03.823Z,225.69
2023-03-06T08:42:03.823Z,226.43
2023-03-06T08:43:04.296Z,226.40
2023-03-06T08:44:03.972Z,195.84
2023-03-06T08:45:04.001Z,178.92
2023-03-06T08:46:04.112Z,199.20
2023-03-06T08:47:04.099Z,205.54
2023-03-06T08:48:04.301Z,211.25
2023-03-06T08:50:04.107Z,202.44
2023-03-06T08:51:04.204Z,200.05
2023-03-06T08:52:04.309Z,198.68
2023-03-06T08:53:04.316Z,193.63
2023-03-06T08:54:04.285Z,193.30
2023-03-06T08:55:04.291Z,193.24
2023-03-06T08:56:04.364Z,192.97
2023-03-06T08:57:04.572Z,186.83
2023-03-06T08:58:04.394Z,181.97
2023-03-06T08:59:04.449Z,184.65
2023-03-06T09:00:04.395Z,189.08
2023-03-06T09:01:04.739Z,188.43
2023-03-06T09:02:04.497Z,187.30
2023-03-06T09:03:04.526Z,187.88
2023-03-06T09:04:04.584Z,188.18
2023-03-06T09:05:04.675Z,186.87
2023-03-06T09:06:04.603Z,187.10
2023-03-06T09:07:04.642Z,184.86
2023-03-06T09:08:04.671Z,184.74
2023-03-06T09:09:04.776Z,184.48
2023-03-06T09:10:04.762Z,185.09
2023-03-06T09:11:04.768Z,183.98
2023-03-06T09:12:04.792Z,185.05
2023-03-06T09:13:04.998Z,187.02
2023-03-06T09:14:04.963Z,190.58
2023-03-06T09:19:05.096Z,205.13
2023-03-06T09:20:05.135Z,200.89
2023-03-06T09:21:05.221Z,200.31
2023-03-06T09:22:05.272Z,203.12
2023-03-06T09:42:06.297Z,212.88
2023-03-06T09:43:06.303Z,209.07
2023-03-06T09:44:06.344Z,207.74
2023-03-06T09:45:06.412Z,205.29
2023-03-06T09:46:06.497Z,204.22
2023-03-06T09:47:06.531Z,202.92
2023-03-06T09:48:06.587Z,201.22
2023-03-06T09:49:06.645Z,200.60
2023-03-06T09:50:06.640Z,198.15
2023-03-06T09:51:06.706Z,196.17
2023-03-06T09:52:06.693Z,191.24
2023-03-06T09:53:06.768Z,182.06
2023-03-06T09:54:06.844Z,172.10
2023-03-06T09:55:06.840Z,163.49
2023-03-06T09:56:06.908Z,147.36
2023-03-06T09:57:06.905Z,89.10
2023-03-06T09:58:07.645Z,44.89
2023-03-06T10:34:08.828Z,171.81
2023-03-06T10:36:08.811Z,184.16
2023-03-06T10:37:08.939Z,186.18
2023-03-06T10:38:08.928Z,189.39
2023-03-06T10:39:09.040Z,192.65
2023-03-06T11:20:10.961Z,169.10
2023-03-06T11:21:11.002Z,175.08
2023-03-06T11:22:11.107Z,135.18
2023-03-06T11:23:11.119Z,80.55
2023-03-06T11:25:11.196Z,26.40
2023-03-06T11:26:11.238Z,22.46
2023-03-06T11:27:11.843Z,24.13
2023-03-06T11:28:11.479Z,45.47
2023-03-06T11:30:11.454Z,104.69
2023-03-06T11:31:11.480Z,120.51
2023-03-06T11:32:11.504Z,126.95
2023-03-06T11:33:11.542Z,132.97
2023-03-06T11:34:11.603Z,142.32
2023-03-06T11:35:11.640Z,147.49
2023-03-06T11:37:11.794Z,148.75
2023-03-06T11:38:11.755Z,154.75
2023-03-06T11:39:13.370Z,161.88
2023-03-06T11:40:12.141Z,168.44
2023-03-06T11:41:12.074Z,171.54
2023-03-06T11:42:12.191Z,177.60
2023-03-06T11:44:12.335Z,185.57
2023-03-06T11:49:12.337Z,184.02
2023-03-06T14:15:18.886Z,131.75
2023-03-06T14:16:18.952Z,126.96
2023-03-06T14:21:18.796Z,125.75
2023-03-06T14:22:18.873Z,128.56
2023-03-06T14:23:18.811Z,131.16
2023-03-06T14:24:18.871Z,134.29
2023-03-06T14:25:18.877Z,133.23
2023-03-06T14:26:18.936Z,126.91
2023-03-06T14:27:18.958Z,122.09
2023-03-06T14:28:18.956Z,123.26
2023-03-06T14:29:19.041Z,126.87
2023-03-06T14:30:19.041Z,130.57
2023-03-06T14:31:19.160Z,132.50
2023-03-06T14:32:19.195Z,129.18
2023-03-06T14:33:19.135Z,123.46
2023-03-06T14:34:19.155Z,122.13
2023-03-06T14:35:19.259Z,117.80
2023-03-06T14:36:19.240Z,123.61
2023-03-06T14:37:19.290Z,123.83
2023-03-06T14:38:19.334Z,126.25
2023-03-06T14:39:19.369Z,128.64
2023-03-06T14:40:19.418Z,128.25
2023-03-06T14:41:19.462Z,124.33
2023-03-06T14:42:19.574Z,119.76
2023-03-06T14:43:19.558Z,115.87
2023-03-06T14:44:19.677Z,115.48
2023-03-06T14:45:19.667Z,116.84
2023-03-06T14:46:19.767Z,118.73
2023-03-06T14:47:19.728Z,119.45
2023-03-06T14:48:19.806Z,120.48
2023-03-06T14:49:19.823Z,121.91
2023-03-06T14:50:19.862Z,125.86
2023-03-06T14:51:19.911Z,126.72
2023-03-06T17:26:29.439Z,123.71
2023-03-06T17:29:28.827Z,118.03
2023-03-06T17:30:28.867Z,117.97
2023-03-06T17:31:28.974Z,117.59
2023-03-06T17:32:29.082Z,119.17
2023-03-06T17:33:29.104Z,123.41
2023-03-06T17:34:29.163Z,123.51
2023-03-06T17:35:29.338Z,123.03
2023-03-06T17:36:29.275Z,120.06
2023-03-06T17:37:29.377Z,123.10
2023-03-06T17:38:29.460Z,124.38
2023-03-06T17:39:29.542Z,125.44
2023-03-06T17:40:30.175Z,128.44
2023-03-06T17:41:29.684Z,127.27
2023-03-06T17:42:29.731Z,125.87
2023-03-06T17:43:29.839Z,120.37
2023-03-06T17:44:29.878Z,120.24
2023-03-06T17:45:29.956Z,121.19
2023-03-06T17:46:30.037Z,121.58
2023-03-06T17:47:30.083Z,123.40
2023-03-06T17:48:30.145Z,125.03
2023-03-06T17:49:30.241Z,125.38
2023-03-06T17:50:30.337Z,126.80
2023-03-06T17:51:30.379Z,130.96
2023-03-06T17:52:30.471Z,130.09
2023-03-06T17:53:30.528Z,132.51
2023-03-06T17:54:30.565Z,129.83
2023-03-06T17:55:30.651Z,131.84
2023-03-06T17:56:30.709Z,133.01
2023-03-06T17:57:30.790Z,133.28
2023-03-06T17:58:30.848Z,135.65
2023-03-06T17:59:30.942Z,135.86
2023-03-06T18:00:30.997Z,137.36
2023-03-06T18:01:31.133Z,134.78
2023-03-06T18:02:31.135Z,134.02
2023-03-06T18:03:31.247Z,135.08
2023-03-06T18:04:31.379Z,135.88
2023-03-06T18:05:31.376Z,137.85
2023-03-06T18:07:31.497Z,138.12
2023-03-06T18:08:31.571Z,138.73
2023-03-06T18:09:31.643Z,137.37
2023-03-06T18:10:31.769Z,140.46
2023-03-06T18:11:31.799Z,139.72
2023-03-06T18:12:31.890Z,139.78
2023-03-06T18:13:31.939Z,138.33
2023-03-06T18:14:32.002Z,138.09
2023-03-06T18:15:32.078Z,138.29
2023-03-06T18:16:32.184Z,138.69
2023-03-06T18:17:32.219Z,138.72
2023-03-06T18:18:32.307Z,140.73
2023-03-06T18:19:32.364Z,141.08
2023-03-06T18:20:32.445Z,140.56
2023-03-06T18:21:32.510Z,143.65
2023-03-06T18:22:32.592Z,143.42
2023-03-06T18:23:32.670Z,143.36
2023-03-06T18:24:32.730Z,141.64
2023-03-06T18:25:32.810Z,142.46
2023-03-06T18:26:32.889Z,139.72
2023-03-06T18:27:32.958Z,140.34
2023-03-06T18:28:33.030Z,141.76
2023-03-06T18:29:33.108Z,140.76
2023-03-06T18:30:33.190Z,142.92
2023-03-06T18:31:34.696Z,145.36
2023-03-06T18:32:33.386Z,145.90
2023-03-06T18:33:33.397Z,140.25
2023-03-06T18:34:33.461Z,136.74
2023-03-06T18:35:33.526Z,137.73
2023-03-06T18:36:33.600Z,138.07
2023-03-06T18:37:33.676Z,140.08
2023-03-06T18:38:33.746Z,139.13
2023-03-06T18:39:33.793Z,135.86
2023-03-06T18:40:33.846Z,134.53
2023-03-06T18:41:33.922Z,137.35
2023-03-06T18:42:34.016Z,141.72
2023-03-06T18:43:34.057Z,141.99
2023-03-06T18:44:34.156Z,142.61
2023-03-06T18:45:34.244Z,143.76
2023-03-06T18:46:34.293Z,144.66
2023-03-06T18:47:34.365Z,144.43
2023-03-06T18:48:34.481Z,142.19
2023-03-06T18:49:34.538Z,142.14
2023-03-06T18:50:34.649Z,142.80
2023-03-06T18:51:34.690Z,142.61
2023-03-06T18:52:34.756Z,141.96
2023-03-06T18:53:34.812Z,143.95
2023-03-06T18:54:34.881Z,143.92
2023-03-06T18:55:35.010Z,142.34
2023-03-06T18:56:35.034Z,140.12
2023-03-06T18:57:35.092Z,140.71
2023-03-06T18:58:35.150Z,140.66
2023-03-06T18:59:35.240Z,141.06
2023-03-06T19:01:35.320Z,142.97
2023-03-06T19:02:35.443Z,143.55
2023-03-06T19:03:35.509Z,143.66
2023-03-06T19:04:35.602Z,143.15
2023-03-06T19:05:35.661Z,141.76
2023-03-06T19:06:35.724Z,141.27
2023-03-06T19:07:35.817Z,142.06
2023-03-06T19:08:35.909Z,140.45
2023-03-06T19:09:35.918Z,141.52
2023-03-06T19:10:36.004Z,143.43
2023-03-06T19:11:36.064Z,143.43
2023-03-06T19:12:36.105Z,141.74
2023-03-06T19:13:36.197Z,141.85
2023-03-06T19:14:36.288Z,142.22
2023-03-06T19:15:36.381Z,141.76
2023-03-06T19:16:36.442Z,141.01
2023-03-06T19:17:36.493Z,144.32
2023-03-06T19:18:36.570Z,144.11
2023-03-06T19:19:36.637Z,143.20
2023-03-06T19:20:36.716Z,142.45
2023-03-06T19:21:36.813Z,142.62
2023-03-06T19:22:36.876Z,143.00
2023-03-06T19:23:36.978Z,141.44
2023-03-06T19:24:37.058Z,143.07
2023-03-06T19:25:37.150Z,142.55
2023-03-06T19:26:37.174Z,141.17
2023-03-06T19:27:37.304Z,138.18
2023-03-06T19:28:37.352Z,136.70
2023-03-06T19:29:37.442Z,131.93
2023-03-06T19:30:37.491Z,124.71
2023-03-06T19:31:37.601Z,123.03
2023-03-06T19:32:37.757Z,122.05
2023-03-06T19:33:37.773Z,121.04
2023-03-06T19:34:37.881Z,121.50
2023-03-06T19:35:37.989Z,120.74
2023-03-06T19:36:37.975Z,120.67
2023-03-06T19:38:38.155Z,121.47
2023-03-06T19:39:38.221Z,123.41
2023-03-06T19:40:38.290Z,122.07
2023-03-06T19:41:38.334Z,123.27
2023-03-06T19:42:38.420Z,124.76
2023-03-06T19:43:38.504Z,124.79
2023-03-06T19:44:38.567Z,124.70
2023-03-06T19:45:38.693Z,125.83
2023-03-06T19:46:38.710Z,125.20
2023-03-06T19:47:38.799Z,123.26
2023-03-06T19:48:38.879Z,122.67
2023-03-06T19:49:39.039Z,119.73
2023-03-06T19:50:39.010Z,115.50
2023-03-06T19:51:39.088Z,114.55
2023-03-06T19:52:39.171Z,117.40
2023-03-06T19:53:39.236Z,118.39
2023-03-06T19:54:39.331Z,119.36
2023-03-06T19:55:39.391Z,122.63
2023-03-06T19:56:39.509Z,123.46
2023-03-06T19:57:39.566Z,122.25
2023-03-06T19:58:39.648Z,124.59
2023-03-06T19:59:39.734Z,123.07
2023-03-06T20:00:39.785Z,123.37
2023-03-06T20:01:39.879Z,123.02
2023-03-06T20:02:39.950Z,124.93
2023-03-06T20:03:40.034Z,124.98
2023-03-06T20:04:40.202Z,123.51
2023-03-06T20:05:40.130Z,122.11
2023-03-06T20:06:40.196Z,121.82
2023-03-06T20:07:40.273Z,123.40
2023-03-06T20:08:40.363Z,126.26
2023-03-06T20:09:40.468Z,125.29
2023-03-06T20:10:40.509Z,124.55
2023-03-06T20:11:40.587Z,126.58
2023-03-06T20:12:40.683Z,126.44
2023-03-06T20:13:46.886Z,124.89
2023-03-06T20:14:41.748Z,125.03
2023-03-06T20:15:40.826Z,125.54
2023-03-06T20:16:40.771Z,126.16
2023-03-06T20:17:40.837Z,126.30
2023-03-06T20:18:40.880Z,129.37
2023-03-06T20:19:40.854Z,126.20
2023-03-06T20:20:40.874Z,128.44
2023-03-06T20:21:40.935Z,127.70
2023-03-06T20:22:40.987Z,126.72
2023-03-06T20:23:40.957Z,127.94
2023-03-06T20:24:41.017Z,127.93
2023-03-06T20:25:41.117Z,129.54
2023-03-06T20:26:41.159Z,127.80
2023-03-06T20:27:41.226Z,120.65
2023-03-06T20:28:41.299Z,103.35
2023-03-06T20:29:41.373Z,99.93
2023-03-06T20:30:41.481Z,102.63
2023-03-06T20:31:41.542Z,107.86
2023-03-06T20:32:41.587Z,104.43
2023-03-06T20:33:41.699Z,103.34
2023-03-06T20:34:41.753Z,104.25
2023-03-06T20:35:41.892Z,109.38
2023-03-06T20:36:41.937Z,111.37
2023-03-06T20:37:41.979Z,112.52
2023-03-06T20:38:42.045Z,114.16
2023-03-06T20:39:42.102Z,115.44
2023-03-06T20:40:42.744Z,117.10
2023-03-06T20:41:42.308Z,121.34
2023-03-06T20:42:42.326Z,119.45
2023-03-06T20:43:42.519Z,111.19
2023-03-06T20:44:42.502Z,82.40
2023-03-06T20:45:42.588Z,50.15
2023-03-06T20:46:42.693Z,36.81
2023-03-06T20:47:42.726Z,37.61
2023-03-06T20:48:42.802Z,49.69
2023-03-06T20:49:42.882Z,57.37
2023-03-06T20:50:43.009Z,48.39
2023-03-06T20:51:43.032Z,43.31
2023-03-06T20:52:43.091Z,41.41
2023-03-06T20:53:43.230Z,39.60
2023-03-06T20:54:43.245Z,31.62
2023-03-06T20:55:43.350Z,32.24
2023-03-06T20:56:43.447Z,37.51
2023-03-06T20:57:43.488Z,36.71
2023-03-06T20:58:43.563Z,32.77
2023-03-06T20:59:43.620Z,38.57
2023-03-06T21:00:43.721Z,40.20
2023-03-06T21:01:43.813Z,37.03
2023-03-06T21:02:43.858Z,35.43
2023-03-06T21:03:43.930Z,47.93
2023-03-06T21:04:44.528Z,60.21
2023-03-06T21:05:44.079Z,72.94
2023-03-06T21:06:44.134Z,78.19
2023-03-06T21:07:44.201Z,81.59
2023-03-06T21:08:44.262Z,80.27
2023-03-06T21:09:44.354Z,76.69
2023-03-06T21:10:44.419Z,82.65
2023-03-06T21:11:44.500Z,84.89
2023-03-06T21:12:44.566Z,86.52
2023-03-06T21:13:44.674Z,89.53
2023-03-06T21:14:44.731Z,92.17
2023-03-06T21:15:44.919Z,92.51
2023-03-06T21:16:44.878Z,93.17
2023-03-06T21:17:44.933Z,94.18
2023-03-06T21:18:45.025Z,96.93
2023-03-06T21:19:45.050Z,100.00
2023-03-06T21:20:45.135Z,98.48
2023-03-06T21:21:45.244Z,100.75
2023-03-06T21:22:45.309Z,101.40
2023-03-06T21:23:45.399Z,102.18
2023-03-06T21:24:45.493Z,108.13
2023-03-06T21:25:45.554Z,110.20
2023-03-06T21:26:45.671Z,112.05
2023-03-06T21:27:45.739Z,115.07
2023-03-06T21:28:45.833Z,117.50
2023-03-06T21:29:45.912Z,120.93
2023-03-06T21:30:45.975Z,122.23
2023-03-06T21:31:46.151Z,120.95
2023-03-06T21:32:46.111Z,119.08
2023-03-06T21:33:46.207Z,117.75
2023-03-06T21:34:46.318Z,117.81
2023-03-06T21:35:46.414Z,114.22
2023-03-06T21:36:46.448Z,116.30
2023-03-06T21:37:46.539Z,117.23
2023-03-06T21:38:46.624Z,123.69
2023-03-06T21:39:46.737Z,123.29
2023-03-06T21:40:46.754Z,126.02
2023-03-06T21:41:46.845Z,124.10
2023-03-06T21:42:46.912Z,122.53
2023-03-06T21:43:47.041Z,121.35
2023-03-06T21:44:47.115Z,120.96
2023-03-06T21:45:47.197Z,123.07
2023-03-06T21:46:47.261Z,125.77
2023-03-06T21:49:47.485Z,126.55
2023-03-06T22:00:48.365Z,131.94
2023-03-06T22:07:48.849Z,134.97
2023-03-06T22:08:48.943Z,135.15
2023-03-06T22:09:49.008Z,138.24
2023-03-06T22:10:49.062Z,137.98
2023-03-06T22:11:49.126Z,137.52
2023-03-06T22:12:49.199Z,139.41
2023-03-06T22:13:49.293Z,138.00
2023-03-06T22:14:49.367Z,138.25
2023-03-06T22:15:49.441Z,139.05
2023-03-06T22:16:49.638Z,137.36
2023-03-06T22:17:49.638Z,137.77
2023-03-06T22:18:49.673Z,137.85
2023-03-06T22:19:49.750Z,137.56
2023-03-06T22:20:49.793Z,137.07
2023-03-06T22:21:49.880Z,137.55
2023-03-06T22:22:49.947Z,138.53
2023-03-06T22:23:50.047Z,139.18
2023-03-06T22:24:50.118Z,135.00
2023-03-06T22:25:50.196Z,135.55
2023-03-06T22:26:50.264Z,136.23
2023-03-06T22:27:50.367Z,138.71
2023-03-06T22:28:50.463Z,139.53
2023-03-06T22:29:50.489Z,138.48
2023-03-06T22:30:50.534Z,140.39
2023-03-06T22:31:50.610Z,138.52
2023-03-06T22:32:50.714Z,139.01
2023-03-06T22:33:50.744Z,141.63
2023-03-06T22:34:50.865Z,140.94
2023-03-06T22:35:50.897Z,142.12
2023-03-06T22:36:50.968Z,141.62